Terminal Aerodrome Forecast
Issued by NWS

Home | Current Version | Previous Version | Text Only | Print | Product List | Glossary On
Versions: 1 2 3 4 5 6 7 8 9 10 11 12 13 14 15 16 17 18 19 20 21 22 23 24 25 26 27 28
000
FTUS46 KEKA 291100
TAFCEC
TAF
KCEC 291131Z 2912/3012 00000KT 2SM BR OVC002
     FM291300 VRB03KT 2SM BR OVC002
     FM291800 VRB06KT 4SM BR OVC003
     FM292100 21008KT P6SM BKN005
     FM300000 24009KT 4SM BR OVC004
     FM300300 VRB04KT 4SM BR OVC003=

USA.gov is the U.S. government's official web portal to all federal, state and local government web resources and services.